METAR Data
IDs: Format: Raw Decoded Include TAF

Data at: 1926 UTC 25 Oct 2021

LFMH 251900Z AUTO 14003KT CAVOK 10/07 Q1022